Tropical Cyclones
[Index]
Main Index Home Page Stock Weather Photos Extreme Storms Discussion Storm News and Storm Chasing Reports Tropical Cyclones / Hurricanes / Typhoons Weather Data and Links Wild Fires / Bushfires Weather Observation Techniques Weather Picture Catalogue Tornado Pictures and Reports Stock Video Footage and DVDs for sale
Season 2009-2010 Tropical Cyclone ULUI Track Map
Season 2009-2010 Summaries (Operational Data): [AU] [SIO] [SPAC] [SH]
<<- Previous TC | 2009-2010 Season | Next TC ->>

click for intensity scale information  Lat/long Grid: Show Hide

 Date Labels: Show Hide

Operational Tropical Cyclone Data : JTWC Advisories | BoM Warnings

Name: ULUI
Number: 1020

09 Mar 2010 18:00 UTC to 20 Mar 2010 21:00 UTC

    date/time    lat    long     hPa   cat  kts
2010-03-09 18   12.0   167.0    1003         25          
2010-03-10 06   13.5   169.5    1003         25          
2010-03-10 18   14.4   168.4    1003         25          
2010-03-11 00   15.0   168.5    1004         25          
2010-03-11 06   14.5   168.5     998         25          
2010-03-11 18   14.7   166.0     998         30          
2010-03-12 00   14.9   166.3     999         30          
2010-03-12 06   15.0   165.4     997         30          
2010-03-12 12   14.4   164.4     995    1    35          
2010-03-12 18   14.0   165.0     985    2    50          
2010-03-13 00   13.8   164.4     980    2    55          
2010-03-13 06   13.4   163.9     975    2    60          
2010-03-13 12   13.1   163.0     965    3    70          
2010-03-13 18   13.0   162.4     945    4   100          
2010-03-14 00   12.7   161.7     930    5   115          
2010-03-14 06   12.8   161.1     930    5   115          
2010-03-14 12   12.7   161.1     930    5   115          
2010-03-14 18   13.0   160.0     935    4   105          
2010-03-15 00   12.9   159.7     940    4    95          
2010-03-15 06   13.0   158.9     925    4   105          
2010-03-15 12   13.1   158.7     940    4    90          
2010-03-15 18   13.2   158.5     945    4    90          
2010-03-16 00   13.2   158.2     940    4   100          
2010-03-16 06   13.5   157.8     938    4   100          
2010-03-16 12   13.5   157.8     938    4   100          
2010-03-16 18   13.7   157.8     937    4   100          
2010-03-17 00   13.8   157.8     950    4    90          
2010-03-17 06   14.1   157.8     950    4    90          
2010-03-17 12   14.4   158.0     950    4    90          
2010-03-17 18   14.7   157.8     952    3    85          
2010-03-18 00   15.0   157.8     960    3    80          
2010-03-18 06   15.4   157.6     965    3    75          
2010-03-18 12   15.7   157.7     970    3    75          
2010-03-18 18   16.7   157.6     972    3    65          
2010-03-19 00   16.7   156.9     980    2    60          
2010-03-19 06   17.4   156.2     984    2    55          
2010-03-19 12   18.0   155.7     983    2    55          
2010-03-19 18   18.4   155.1     980    2    55          
2010-03-20 00   19.6   153.3     978    2    55          
2010-03-20 06   19.9   151.5     975    3    65          
2010-03-20 12   20.0   149.6     964    3    80          
2010-03-20 18   20.4   148.4     975    2    60          
2010-03-20 21   20.7   147.3     990    1    40          
Winds are 10-min average.

Tropical cyclone tracks developed by Michael Bath using operational warnings and advisories and Google Maps.


[Australian Severe Weather index] [Copyright Notice] [Email Contacts] [Search This Site] [Privacy Policy]
Document: tropical_cyclone_ului.htm Updated: 28 May 2013